createdAt,value
2022-07-25T00:01:46.198Z,57.79
2022-07-25T00:04:19.287Z,57.93
2022-07-25T00:06:51.474Z,58.02
2022-07-25T00:09:23.726Z,58.36
2022-07-25T00:11:55.917Z,58.26
2022-07-25T00:14:28.415Z,58.49
2022-07-25T00:17:00.694Z,58.85
2022-07-25T00:19:33.150Z,59.04
2022-07-25T00:22:05.511Z,59.09
2022-07-25T00:24:37.869Z,59.54
2022-07-25T00:27:15.205Z,59.50
2022-07-25T00:29:47.315Z,59.44
2022-07-25T00:32:19.912Z,59.49
2022-07-25T00:34:51.980Z,59.53
2022-07-25T00:37:24.413Z,59.53
2022-07-25T00:39:56.627Z,59.38
2022-07-25T00:42:28.781Z,59.21
2022-07-25T00:45:01.108Z,59.33
2022-07-25T00:47:33.266Z,59.44
2022-07-25T00:50:06.992Z,59.60
2022-07-25T00:52:38.749Z,59.77
2022-07-25T00:55:12.136Z,59.89
2022-07-25T00:57:44.287Z,60.09
2022-07-25T01:00:18.860Z,60.25
2022-07-25T01:02:51.057Z,60.28
2022-07-25T01:05:23.833Z,60.38
2022-07-25T01:07:56.551Z,60.62
2022-07-25T01:10:30.571Z,60.81
2022-07-25T01:13:03.333Z,61.00
2022-07-25T01:15:35.706Z,60.88
2022-07-25T01:18:08.263Z,61.16
2022-07-25T01:20:40.330Z,61.15
2022-07-25T01:23:12.622Z,61.26
2022-07-25T01:25:45.847Z,61.47
2022-07-25T01:28:18.571Z,61.66
2022-07-25T01:30:51.050Z,61.42
2022-07-25T01:33:24.096Z,61.20
2022-07-25T01:35:56.188Z,61.14
2022-07-25T01:38:28.427Z,60.85
2022-07-25T01:41:00.588Z,60.71
2022-07-25T01:43:32.659Z,60.71
2022-07-25T01:46:04.962Z,60.94
2022-07-25T01:48:37.332Z,60.84
2022-07-25T01:51:11.669Z,60.84
2022-07-25T01:53:44.611Z,60.33
2022-07-25T01:56:17.853Z,60.65
2022-07-25T01:58:54.203Z,60.45
2022-07-25T02:01:26.305Z,60.56
2022-07-25T02:03:58.541Z,60.38
2022-07-25T02:06:30.923Z,60.43
2022-07-25T02:09:03.410Z,60.63
2022-07-25T02:11:35.379Z,60.57
2022-07-25T02:14:08.351Z,60.32
2022-07-25T02:16:40.636Z,60.37
2022-07-25T02:19:13.384Z,60.83
2022-07-25T02:21:45.529Z,60.82
2022-07-25T02:24:17.856Z,61.06
2022-07-25T02:26:50.027Z,61.01
2022-07-25T02:29:22.611Z,61.11
2022-07-25T02:31:55.282Z,61.46
2022-07-25T02:34:27.541Z,61.38
2022-07-25T02:36:59.658Z,61.67
2022-07-25T02:39:32.255Z,61.66
2022-07-25T02:42:04.343Z,61.72
2022-07-25T02:44:36.671Z,61.87
2022-07-25T02:47:09.116Z,61.96
2022-07-25T02:49:41.244Z,61.65
2022-07-25T02:52:13.645Z,61.73
2022-07-25T02:54:45.939Z,61.86
2022-07-25T02:57:17.979Z,61.75
2022-07-25T02:59:50.181Z,61.78
2022-07-25T03:02:22.371Z,62.08
2022-07-25T03:04:54.583Z,62.34
2022-07-25T03:07:26.727Z,62.22
2022-07-25T03:09:58.802Z,62.44
2022-07-25T03:12:32.927Z,62.64
2022-07-25T03:15:05.702Z,62.98
2022-07-25T03:17:37.939Z,62.90
2022-07-25T03:20:12.984Z,62.99
2022-07-25T03:22:45.243Z,62.71
2022-07-25T03:25:21.506Z,62.67
2022-07-25T03:27:54.184Z,62.61
2022-07-25T03:30:26.551Z,62.73
2022-07-25T03:32:58.604Z,62.67
2022-07-25T03:35:30.804Z,62.88
2022-07-25T03:38:03.174Z,62.62
2022-07-25T03:40:36.561Z,62.66
2022-07-25T03:43:08.835Z,62.69
2022-07-25T03:45:41.019Z,62.95
2022-07-25T03:48:13.482Z,63.13
2022-07-25T03:50:46.021Z,63.26
2022-07-25T03:53:18.811Z,63.29
2022-07-25T03:55:51.428Z,63.18
2022-07-25T03:58:24.483Z,63.27
2022-07-25T04:00:57.073Z,63.38
2022-07-25T04:03:30.759Z,63.74
2022-07-25T04:06:03.333Z,63.80
2022-07-25T04:08:35.413Z,63.96
2022-07-25T04:11:07.999Z,64.34
2022-07-25T04:13:41.113Z,64.35
2022-07-25T04:16:18.509Z,64.78
2022-07-25T04:18:55.377Z,64.84
2022-07-25T04:21:29.158Z,65.29
2022-07-25T04:24:01.322Z,65.11
2022-07-25T04:26:33.555Z,65.44
2022-07-25T04:29:07.148Z,65.79
2022-07-25T04:31:39.457Z,65.67
2022-07-25T04:34:11.553Z,65.66
2022-07-25T04:36:47.486Z,65.98
2022-07-25T04:39:20.221Z,66.04
2022-07-25T04:41:52.347Z,66.05
2022-07-25T04:44:24.685Z,66.30
2022-07-25T04:46:56.874Z,66.36
2022-07-25T04:49:29.117Z,66.45
2022-07-25T04:52:01.311Z,66.55
2022-07-25T04:54:33.663Z,66.57
2022-07-25T04:57:05.975Z,66.86
2022-07-25T04:59:38.128Z,66.64
2022-07-25T05:02:10.392Z,66.13
2022-07-25T05:04:45.371Z,66.26
2022-07-25T05:07:17.792Z,65.72
2022-07-25T05:09:50.216Z,65.75
2022-07-25T05:12:22.223Z,65.32
2022-07-25T05:14:55.127Z,65.76
2022-07-25T05:17:27.259Z,63.94
2022-07-25T05:19:59.852Z,62.07
2022-07-25T05:22:32.124Z,60.91
2022-07-25T05:25:04.245Z,60.31
2022-07-25T05:27:36.563Z,60.09
2022-07-25T05:30:11.928Z,59.73
2022-07-25T05:32:45.379Z,59.31
2022-07-25T05:35:18.285Z,59.34
2022-07-25T05:37:50.614Z,59.72
2022-07-25T05:40:23.224Z,60.50
2022-07-25T05:43:00.806Z,61.38
2022-07-25T05:45:35.140Z,61.70
2022-07-25T05:48:07.816Z,61.15
2022-07-25T05:50:40.733Z,60.31
2022-07-25T05:53:13.377Z,59.30
2022-07-25T05:55:46.438Z,58.83
2022-07-25T05:58:19.272Z,57.29
2022-07-25T06:00:52.421Z,56.42
2022-07-25T06:03:24.896Z,56.22
2022-07-25T06:05:57.848Z,55.82
2022-07-25T06:08:30.980Z,55.32
2022-07-25T06:11:04.070Z,54.92
2022-07-25T06:13:37.362Z,54.64
2022-07-25T06:16:10.655Z,54.75
2022-07-25T06:18:42.778Z,54.50
2022-07-25T06:21:15.086Z,54.55
2022-07-25T06:23:47.227Z,54.50
2022-07-25T06:26:19.870Z,53.17
2022-07-25T06:28:52.274Z,52.85
2022-07-25T06:31:24.555Z,52.90
2022-07-25T06:33:56.819Z,52.70
2022-07-25T06:36:32.841Z,52.52
2022-07-25T06:39:05.198Z,52.46
2022-07-25T06:41:38.007Z,52.24
2022-07-25T06:44:10.257Z,51.86
2022-07-25T06:46:42.601Z,51.97
2022-07-25T06:49:14.927Z,52.35
2022-07-25T06:51:47.371Z,52.26
2022-07-25T06:54:19.712Z,51.86
2022-07-25T06:56:52.009Z,51.39
2022-07-25T06:59:25.659Z,51.42
2022-07-25T07:01:57.784Z,51.05
2022-07-25T07:04:30.292Z,50.96
2022-07-25T07:07:02.641Z,50.89
2022-07-25T07:09:34.834Z,49.60
2022-07-25T07:12:08.746Z,50.28
2022-07-25T07:14:41.713Z,49.84
2022-07-25T07:17:14.132Z,49.95
2022-07-25T07:19:46.472Z,50.07
2022-07-25T07:22:18.669Z,49.83
2022-07-25T07:24:51.155Z,50.06
2022-07-25T07:27:30.303Z,49.84
2022-07-25T07:30:02.466Z,48.97
2022-07-25T07:32:34.921Z,48.86
2022-07-25T07:35:08.513Z,47.81
2022-07-25T07:37:43.651Z,47.45
2022-07-25T07:40:18.308Z,47.94
2022-07-25T07:42:52.027Z,48.00
2022-07-25T07:45:25.810Z,47.45
2022-07-25T07:47:58.193Z,46.90
2022-07-25T07:50:30.472Z,45.94
2022-07-25T07:53:02.885Z,46.76
2022-07-25T07:55:55.374Z,46.40
2022-07-25T07:58:27.703Z,44.89
2022-07-25T08:00:59.811Z,44.37
2022-07-25T08:03:31.915Z,43.70
2022-07-25T08:06:04.830Z,43.49
2022-07-25T08:08:36.970Z,42.94
2022-07-25T08:11:09.678Z,43.01
2022-07-25T08:13:41.734Z,44.30
2022-07-25T08:16:15.640Z,43.86
2022-07-25T08:18:47.773Z,43.31
2022-07-25T08:21:19.936Z,42.44
2022-07-25T08:23:52.142Z,41.51
2022-07-25T08:26:24.333Z,41.33
2022-07-25T08:29:17.561Z,40.05
2022-07-25T08:31:49.296Z,39.05
2022-07-25T08:34:22.805Z,40.09
2022-07-25T08:36:54.958Z,38.97
2022-07-25T08:39:27.181Z,39.32
2022-07-25T08:42:00.398Z,39.05
2022-07-25T08:44:37.782Z,39.51
2022-07-25T08:47:15.664Z,39.31
2022-07-25T08:49:49.474Z,38.41
2022-07-25T08:52:22.432Z,38.36
2022-07-25T08:54:54.897Z,38.44
2022-07-25T08:57:27.199Z,38.31
2022-07-25T09:00:01.853Z,38.78
2022-07-25T09:02:32.516Z,38.68
2022-07-25T09:05:10.337Z,38.58
2022-07-25T09:07:43.657Z,38.08
2022-07-25T09:10:17.931Z,37.38
2022-07-25T09:12:57.090Z,37.14
2022-07-25T09:15:31.361Z,36.89
2022-07-25T09:18:06.067Z,36.34
2022-07-25T09:20:44.270Z,36.75
2022-07-25T09:23:27.803Z,36.69
2022-07-25T09:26:07.018Z,36.32
2022-07-25T09:28:45.977Z,36.75
2022-07-25T09:31:20.268Z,35.92
2022-07-25T09:33:56.510Z,35.96
2022-07-25T09:36:28.939Z,35.18
2022-07-25T09:39:05.181Z,35.12
2022-07-25T09:41:39.113Z,34.83
2022-07-25T09:44:19.614Z,35.22
2022-07-25T09:46:52.306Z,35.38
2022-07-25T09:49:24.631Z,35.56
2022-07-25T09:51:59.104Z,35.42
2022-07-25T09:54:31.571Z,35.18
2022-07-25T09:57:04.063Z,34.73
2022-07-25T09:59:38.213Z,35.12
2022-07-25T10:02:13.698Z,34.74
2022-07-25T10:04:55.993Z,33.77
2022-07-25T10:07:31.485Z,33.91
2022-07-25T10:10:04.010Z,34.27
2022-07-25T10:12:38.301Z,34.21
2022-07-25T10:15:13.564Z,33.51
2022-07-25T10:17:45.613Z,33.10
2022-07-25T10:20:28.334Z,32.94
2022-07-25T10:23:00.497Z,32.74
2022-07-25T10:25:32.652Z,32.83
2022-07-25T10:28:12.997Z,33.13
2022-07-25T10:30:45.481Z,32.66
2022-07-25T10:33:19.987Z,33.13
2022-07-25T10:35:50.593Z,32.23
2022-07-25T10:38:29.660Z,32.62
2022-07-25T10:41:05.646Z,33.03
2022-07-25T10:43:44.574Z,32.78
2022-07-25T10:46:23.201Z,32.53
2022-07-25T10:49:03.666Z,31.85
2022-07-25T10:51:41.611Z,31.76
2022-07-25T10:54:18.603Z,32.06
2022-07-25T10:56:59.195Z,31.97
2022-07-25T10:59:33.803Z,31.18
2022-07-25T11:02:08.582Z,30.45
2022-07-25T11:04:40.743Z,31.53
2022-07-25T11:07:15.358Z,31.16
2022-07-25T11:09:57.032Z,30.84
2022-07-25T11:12:29.623Z,30.29
2022-07-25T11:15:06.360Z,30.45
2022-07-25T11:17:38.417Z,30.24
2022-07-25T11:20:13.488Z,30.67
2022-07-25T11:22:51.739Z,29.92
2022-07-25T11:25:25.105Z,29.74
2022-07-25T11:28:00.960Z,30.47
2022-07-25T11:30:33.031Z,29.72
2022-07-25T11:33:05.338Z,29.60
2022-07-25T11:35:37.378Z,29.41
2022-07-25T11:38:14.796Z,29.38
2022-07-25T11:40:47.185Z,28.81
2022-07-25T11:43:24.724Z,30.00
2022-07-25T11:46:06.681Z,29.75
2022-07-25T11:48:41.525Z,29.68
2022-07-25T11:51:18.618Z,29.06
2022-07-25T11:53:52.912Z,28.00
2022-07-25T11:56:41.775Z,27.81
2022-07-25T11:59:14.859Z,28.36
2022-07-25T12:01:47.677Z,28.85
2022-07-25T12:04:21.938Z,28.62
2022-07-25T12:07:04.430Z,28.75
2022-07-25T12:09:36.632Z,28.38
2022-07-25T12:12:10.843Z,28.41
2022-07-25T12:14:46.538Z,28.29
2022-07-25T12:17:18.631Z,27.91
2022-07-25T12:19:50.681Z,28.42
2022-07-25T12:22:23.082Z,28.00
2022-07-25T12:24:55.033Z,28.69
2022-07-25T12:27:27.186Z,28.11
2022-07-25T12:29:59.272Z,27.78
2022-07-25T12:32:31.875Z,28.10
2022-07-25T12:35:04.700Z,28.09
2022-07-25T12:37:37.528Z,27.98
2022-07-25T12:40:11.875Z,28.36
2022-07-25T12:42:44.696Z,28.44
2022-07-25T12:45:18.023Z,27.98
2022-07-25T12:47:50.556Z,27.86
2022-07-25T12:50:25.724Z,27.57
2022-07-25T12:52:57.815Z,27.73
2022-07-25T12:55:30.120Z,27.47
2022-07-25T12:58:02.154Z,27.48
2022-07-25T13:00:34.393Z,28.51
2022-07-25T13:03:06.427Z,27.31
2022-07-25T13:05:38.593Z,26.98
2022-07-25T13:08:11.372Z,26.93
2022-07-25T13:10:43.760Z,26.78
2022-07-25T13:13:16.026Z,27.18
2022-07-25T13:15:48.099Z,26.72
2022-07-25T13:18:20.521Z,26.97
2022-07-25T13:20:52.673Z,26.65
2022-07-25T13:23:24.803Z,26.64
2022-07-25T13:25:56.843Z,26.36
2022-07-25T13:28:28.912Z,26.53
2022-07-25T13:31:01.880Z,26.81
2022-07-25T13:33:34.424Z,26.56
2022-07-25T13:36:07.507Z,26.46
2022-07-25T13:38:41.561Z,26.38
2022-07-25T13:41:14.225Z,26.08
2022-07-25T13:43:47.833Z,26.14
2022-07-25T13:46:21.059Z,26.23
2022-07-25T13:48:53.923Z,25.92
2022-07-25T13:51:26.071Z,25.82
2022-07-25T13:53:58.182Z,26.17
2022-07-25T13:56:30.385Z,25.59
2022-07-25T13:59:03.569Z,25.49
2022-07-25T14:01:36.265Z,25.85
2022-07-25T14:04:08.645Z,26.41
2022-07-25T14:06:40.761Z,26.38
2022-07-25T14:09:13.054Z,25.80
2022-07-25T14:11:45.194Z,25.57
2022-07-25T14:14:17.734Z,25.62
2022-07-25T14:16:50.143Z,25.36
2022-07-25T14:19:23.754Z,25.67
2022-07-25T14:21:55.836Z,25.44
2022-07-25T14:24:27.897Z,25.64
2022-07-25T14:27:00.972Z,25.41
2022-07-25T14:29:33.325Z,25.56
2022-07-25T14:32:06.754Z,25.37
2022-07-25T14:34:40.530Z,26.27
2022-07-25T14:37:12.783Z,25.53
2022-07-25T14:39:45.230Z,25.05
2022-07-25T14:42:17.801Z,25.15
2022-07-25T14:44:50.136Z,25.24
2022-07-25T14:47:22.472Z,24.80
2022-07-25T14:49:54.648Z,25.00
2022-07-25T14:52:27.070Z,25.07
2022-07-25T14:54:59.078Z,24.89
2022-07-25T14:57:31.252Z,25.08
2022-07-25T15:00:03.604Z,24.98
2022-07-25T15:02:35.774Z,24.70
2022-07-25T15:05:09.500Z,25.38
2022-07-25T15:07:41.673Z,25.12
2022-07-25T15:10:14.574Z,25.06
2022-07-25T15:12:46.741Z,25.30
2022-07-25T15:15:18.920Z,25.15
2022-07-25T15:17:51.092Z,24.50
2022-07-25T15:20:23.552Z,24.67
2022-07-25T15:22:55.748Z,24.73
2022-07-25T15:25:59.980Z,24.46
2022-07-25T15:28:20.256Z,24.82
2022-07-25T15:30:52.589Z,24.62
2022-07-25T15:33:24.605Z,24.57
2022-07-25T15:35:56.965Z,24.69
2022-07-25T15:38:30.899Z,24.52
2022-07-25T15:41:03.306Z,24.46
2022-07-25T15:43:35.572Z,24.62
2022-07-25T15:46:11.889Z,24.99
2022-07-25T15:48:45.807Z,24.95
2022-07-25T15:51:19.006Z,24.94
2022-07-25T15:53:51.057Z,24.79
2022-07-25T15:56:23.164Z,25.26
2022-07-25T15:58:55.623Z,25.47
2022-07-25T16:01:27.793Z,25.32
2022-07-25T16:04:01.495Z,25.38
2022-07-25T16:06:33.573Z,25.30
2022-07-25T16:09:06.718Z,25.59
2022-07-25T16:11:40.570Z,25.93
2022-07-25T16:14:13.205Z,25.72
2022-07-25T16:16:45.297Z,25.61
2022-07-25T16:19:17.667Z,26.02
2022-07-25T16:21:49.675Z,26.08
2022-07-25T16:24:21.699Z,26.33
2022-07-25T16:26:54.089Z,26.57
2022-07-25T16:29:26.259Z,26.48
2022-07-25T16:31:58.434Z,26.27
2022-07-25T16:34:30.544Z,26.61
2022-07-25T16:37:04.173Z,26.57
2022-07-25T16:39:36.313Z,26.57
2022-07-25T16:42:08.942Z,26.95
2022-07-25T16:44:41.372Z,27.00
2022-07-25T16:47:13.529Z,27.19
2022-07-25T16:49:45.598Z,27.51
2022-07-25T16:52:17.901Z,27.33
2022-07-25T16:54:49.919Z,27.34
2022-07-25T16:57:25.001Z,26.99
2022-07-25T16:59:57.528Z,27.32
2022-07-25T17:02:30.150Z,27.51
2022-07-25T17:05:02.403Z,27.77
2022-07-25T17:07:37.016Z,28.14
2022-07-25T17:10:11.039Z,27.98
2022-07-25T17:12:43.121Z,28.22
2022-07-25T17:15:16.083Z,28.21
2022-07-25T17:17:48.351Z,28.27
2022-07-25T17:20:20.661Z,28.19
2022-07-25T17:22:52.804Z,28.35
2022-07-25T17:25:24.941Z,28.51
2022-07-25T17:27:56.990Z,28.33
2022-07-25T17:30:29.211Z,28.64
2022-07-25T17:33:01.748Z,28.71
2022-07-25T17:35:33.888Z,28.97
2022-07-25T17:38:05.970Z,29.18
2022-07-25T17:40:40.092Z,29.12
2022-07-25T17:43:12.136Z,29.07
2022-07-25T17:45:44.376Z,29.00
2022-07-25T17:48:16.586Z,29.10
2022-07-25T17:50:48.744Z,29.01
2022-07-25T17:53:20.794Z,29.03
2022-07-25T17:55:52.997Z,29.15
2022-07-25T17:58:25.080Z,29.24
2022-07-25T18:01:01.170Z,29.21
2022-07-25T18:03:33.892Z,29.17
2022-07-25T18:06:06.599Z,29.51
2022-07-25T18:08:39.424Z,29.72
2022-07-25T18:11:11.531Z,30.14
2022-07-25T18:13:43.720Z,29.76
2022-07-25T18:16:16.073Z,29.97
2022-07-25T18:18:48.253Z,30.09
2022-07-25T18:21:20.684Z,30.19
2022-07-25T18:23:52.831Z,30.40
2022-07-25T18:26:25.804Z,30.93
2022-07-25T18:28:57.938Z,31.44
2022-07-25T18:31:30.832Z,30.99
2022-07-25T18:34:03.859Z,31.24
2022-07-25T18:36:36.127Z,32.06
2022-07-25T18:39:08.746Z,31.24
2022-07-25T18:41:41.060Z,31.49
2022-07-25T18:44:13.286Z,31.80
2022-07-25T18:46:46.750Z,31.58
2022-07-25T18:49:19.348Z,31.55
2022-07-25T18:51:52.734Z,32.32
2022-07-25T18:54:25.414Z,32.30
2022-07-25T18:56:57.619Z,32.20
2022-07-25T18:59:29.740Z,31.94
2022-07-25T19:02:05.535Z,32.34
2022-07-25T19:04:38.134Z,32.49
2022-07-25T19:07:10.723Z,32.27
2022-07-25T19:09:43.473Z,32.52
2022-07-25T19:12:15.890Z,32.30
2022-07-25T19:14:48.027Z,32.41
2022-07-25T19:17:20.382Z,32.73
2022-07-25T19:19:52.903Z,32.93
2022-07-25T19:22:25.298Z,33.03
2022-07-25T19:24:57.899Z,33.25
2022-07-25T19:27:30.454Z,33.07
2022-07-25T19:30:08.034Z,33.25
2022-07-25T19:32:41.381Z,33.75
2022-07-25T19:35:13.631Z,33.68
2022-07-25T19:37:46.008Z,33.73
2022-07-25T19:40:18.147Z,33.68
2022-07-25T19:42:51.449Z,34.15
2022-07-25T19:45:24.178Z,34.87
2022-07-25T19:47:56.728Z,34.28
2022-07-25T19:50:29.104Z,34.06
2022-07-25T19:53:01.595Z,34.68
2022-07-25T19:55:33.954Z,33.94
2022-07-25T19:58:08.518Z,33.99
2022-07-25T20:00:39.825Z,33.97
2022-07-25T20:03:11.982Z,34.36
2022-07-25T20:05:45.305Z,34.04
2022-07-25T20:08:18.892Z,34.25
2022-07-25T20:10:50.972Z,34.05
2022-07-25T20:13:23.390Z,33.93
2022-07-25T20:15:55.609Z,33.94
2022-07-25T20:18:27.767Z,34.03
2022-07-25T20:21:00.006Z,33.95
2022-07-25T20:23:34.254Z,34.09
2022-07-25T20:26:07.873Z,34.08
2022-07-25T20:28:40.056Z,34.31
2022-07-25T20:31:13.241Z,34.34
2022-07-25T20:33:46.663Z,34.22
2022-07-25T20:36:19.156Z,34.25
2022-07-25T20:38:51.409Z,34.27
2022-07-25T20:41:24.045Z,34.49
2022-07-25T20:43:56.704Z,34.39
2022-07-25T20:46:29.085Z,34.49
2022-07-25T20:49:01.490Z,34.44
2022-07-25T20:51:34.294Z,34.50
2022-07-25T20:54:07.002Z,34.64
2022-07-25T20:56:39.323Z,34.58
2022-07-25T20:59:11.883Z,35.03
2022-07-25T21:01:44.162Z,34.63
2022-07-25T21:04:17.901Z,34.68
2022-07-25T21:06:49.966Z,34.54
2022-07-25T21:09:22.184Z,34.86
2022-07-25T21:11:54.294Z,34.65
2022-07-25T21:14:27.037Z,34.61
2022-07-25T21:16:59.256Z,34.87
2022-07-25T21:19:31.753Z,34.76
2022-07-25T21:22:04.199Z,34.64
2022-07-25T21:24:36.685Z,34.72
2022-07-25T21:27:09.187Z,34.64
2022-07-25T21:29:41.187Z,34.86
2022-07-25T21:32:13.822Z,35.02
2022-07-25T21:34:46.666Z,34.95
2022-07-25T21:37:19.074Z,35.02
2022-07-25T21:39:51.753Z,35.14
2022-07-25T21:42:23.909Z,35.64
2022-07-25T21:44:56.328Z,36.22
2022-07-25T21:47:29.002Z,36.46
2022-07-25T21:50:24.197Z,35.63
2022-07-25T21:52:57.479Z,35.98
2022-07-25T21:55:30.397Z,35.84
2022-07-25T21:58:02.584Z,35.99
2022-07-25T22:00:38.831Z,36.04
2022-07-25T22:03:15.926Z,36.14
2022-07-25T22:05:48.205Z,36.23
2022-07-25T22:08:20.255Z,36.30
2022-07-25T22:10:52.461Z,36.09
2022-07-25T22:13:24.562Z,36.24
2022-07-25T22:15:56.667Z,36.59
2022-07-25T22:18:28.987Z,36.34
2022-07-25T22:21:02.063Z,36.29
2022-07-25T22:23:34.232Z,36.37
2022-07-25T22:26:09.095Z,36.38
2022-07-25T22:28:41.463Z,36.77
2022-07-25T22:31:13.707Z,37.63
2022-07-25T22:33:45.778Z,37.98
2022-07-25T22:36:18.279Z,37.73
2022-07-25T22:38:50.784Z,37.67
2022-07-25T22:41:22.962Z,37.34
2022-07-25T22:43:57.706Z,37.22
2022-07-25T22:46:32.400Z,37.68
2022-07-25T22:49:05.297Z,39.04
2022-07-25T22:51:37.775Z,39.26
2022-07-25T22:54:09.942Z,39.76
2022-07-25T22:56:42.192Z,39.28
2022-07-25T22:59:16.184Z,39.00
2022-07-25T23:01:48.196Z,38.82
2022-07-25T23:04:20.318Z,38.33
2022-07-25T23:06:52.839Z,38.04
2022-07-25T23:09:24.872Z,37.77
2022-07-25T23:12:07.278Z,38.01
2022-07-25T23:14:39.297Z,37.53
2022-07-25T23:17:21.129Z,37.50
2022-07-25T23:19:56.181Z,37.80
2022-07-25T23:22:30.244Z,37.59
2022-07-25T23:25:02.424Z,38.15
2022-07-25T23:27:35.001Z,39.97
2022-07-25T23:30:08.817Z,41.67
2022-07-25T23:32:40.907Z,41.45
2022-07-25T23:35:14.149Z,41.34
2022-07-25T23:37:46.670Z,41.31
2022-07-25T23:40:21.471Z,40.99
2022-07-25T23:42:54.554Z,42.44
2022-07-25T23:45:28.074Z,42.42
2022-07-25T23:48:01.097Z,42.78
2022-07-25T23:50:33.161Z,43.12
2022-07-25T23:53:05.767Z,42.20
2022-07-25T23:55:37.922Z,42.27
2022-07-25T23:58:10.032Z,42.32
